createdAt,value
2024-05-09T00:00:00.179Z,0
2024-05-09T00:01:09.901Z,0
2024-05-09T00:02:01.208Z,0
2024-05-09T00:03:00.061Z,0
2024-05-09T00:03:59.856Z,0
2024-05-09T00:05:01.384Z,0
2024-05-09T00:06:12.190Z,0
2024-05-09T00:07:00.144Z,0
2024-05-09T00:07:59.171Z,0
2024-05-09T00:09:01.214Z,0
2024-05-09T00:09:59.756Z,0
2024-05-09T00:11:16.519Z,0
2024-05-09T00:12:01.401Z,0
2024-05-09T00:13:01.149Z,0
2024-05-09T00:14:05.469Z,0
2024-05-09T00:14:59.900Z,0
2024-05-09T00:16:01.259Z,0
2024-05-09T00:17:00.060Z,0
2024-05-09T00:17:58.942Z,0
2024-05-09T00:18:59.804Z,0
2024-05-09T00:20:01.419Z,0
2024-05-09T00:21:01.471Z,0
2024-05-09T00:22:00.237Z,0
2024-05-09T00:22:58.931Z,0
2024-05-09T00:23:59.691Z,0
2024-05-09T00:25:01.204Z,0
2024-05-09T00:26:00.014Z,0
2024-05-09T00:26:58.711Z,0
2024-05-09T00:28:01.240Z,0
2024-05-09T00:29:00.024Z,0
2024-05-09T00:29:58.683Z,0
2024-05-09T00:31:01.193Z,0
2024-05-09T00:32:00.076Z,0
2024-05-09T00:32:59.003Z,0
2024-05-09T00:33:59.829Z,0
2024-05-09T00:35:01.253Z,0
2024-05-09T00:36:00.008Z,0
2024-05-09T00:36:58.808Z,0
2024-05-09T00:38:01.436Z,0
2024-05-09T00:39:01.245Z,0
2024-05-09T00:40:00.054Z,0
2024-05-09T00:40:58.729Z,0
2024-05-09T00:42:01.207Z,0
2024-05-09T00:42:59.877Z,0
2024-05-09T00:44:01.248Z,0
2024-05-09T00:44:59.976Z,0
2024-05-09T00:45:58.764Z,0
2024-05-09T00:47:01.235Z,0
2024-05-09T00:48:00.631Z,0
2024-05-09T00:48:59.576Z,0
2024-05-09T00:50:01.259Z,0
2024-05-09T00:51:00.151Z,0
2024-05-09T00:51:58.892Z,0
2024-05-09T00:53:01.263Z,0
2024-05-09T00:54:00.053Z,0
2024-05-09T00:54:58.713Z,0
2024-05-09T00:56:01.295Z,0
2024-05-09T00:56:59.970Z,0
2024-05-09T00:57:58.675Z,0
2024-05-09T00:59:01.244Z,0
2024-05-09T00:59:59.985Z,0
2024-05-09T01:00:58.818Z,0
2024-05-09T01:02:01.342Z,0
2024-05-09T01:02:59.894Z,0
2024-05-09T01:03:58.884Z,0
2024-05-09T01:05:01.391Z,0
2024-05-09T01:06:01.285Z,0
2024-05-09T01:07:00.030Z,0
2024-05-09T01:07:58.772Z,0
2024-05-09T01:09:01.171Z,0
2024-05-09T01:09:59.963Z,0
2024-05-09T01:10:58.864Z,0
2024-05-09T01:12:01.413Z,0
2024-05-09T01:13:01.225Z,0
2024-05-09T01:14:00.009Z,0
2024-05-09T01:14:58.812Z,0
2024-05-09T01:16:01.294Z,0
2024-05-09T01:17:00.003Z,0
2024-05-09T01:17:58.988Z,0
2024-05-09T01:18:59.897Z,0
2024-05-09T01:19:58.707Z,0
2024-05-09T01:21:01.367Z,0
2024-05-09T01:22:00.025Z,0
2024-05-09T01:22:58.835Z,0
2024-05-09T01:24:01.216Z,0
2024-05-09T01:24:59.942Z,0
2024-05-09T01:25:58.731Z,0
2024-05-09T01:27:03.439Z,0
2024-05-09T01:28:01.183Z,0
2024-05-09T01:28:59.904Z,0
2024-05-09T01:29:58.648Z,0
2024-05-09T01:31:01.223Z,0
2024-05-09T01:32:04.799Z,0
2024-05-09T01:33:00.053Z,0
2024-05-09T01:33:58.813Z,0
2024-05-09T01:35:01.359Z,0
2024-05-09T01:36:00.118Z,0
2024-05-09T01:37:07.138Z,0
2024-05-09T01:38:01.346Z,0
2024-05-09T01:39:00.151Z,0
2024-05-09T01:39:58.915Z,0
2024-05-09T01:41:01.255Z,0
2024-05-09T01:42:09.668Z,0
2024-05-09T01:43:00.098Z,0
2024-05-09T01:43:59.333Z,0
2024-05-09T01:45:00.086Z,0
2024-05-09T01:45:58.763Z,0
2024-05-09T01:47:13.852Z,0
2024-05-09T01:48:01.975Z,0
2024-05-09T01:48:59.846Z,0
2024-05-09T01:50:01.500Z,0
2024-05-09T01:51:01.268Z,0
2024-05-09T01:52:15.149Z,0
2024-05-09T01:53:00.208Z,0
2024-05-09T01:53:58.902Z,0
2024-05-09T01:55:04.674Z,0
2024-05-09T01:56:01.229Z,0
2024-05-09T01:56:59.943Z,0
2024-05-09T01:57:58.676Z,0
2024-05-09T01:59:01.260Z,0
2024-05-09T01:59:59.992Z,0
2024-05-09T02:00:58.682Z,0
2024-05-09T02:02:01.566Z,0
2024-05-09T02:03:01.759Z,0
2024-05-09T02:04:01.570Z,0
2024-05-09T02:04:59.965Z,0
2024-05-09T02:05:58.974Z,0
2024-05-09T02:06:59.726Z,0
2024-05-09T02:08:01.375Z,0
2024-05-09T02:09:00.178Z,0
2024-05-09T02:09:58.914Z,0
2024-05-09T02:11:01.550Z,0
2024-05-09T02:12:01.488Z,0
2024-05-09T02:13:01.303Z,0
2024-05-09T02:14:00.304Z,0
2024-05-09T02:14:59.063Z,0
2024-05-09T02:15:59.760Z,0
2024-05-09T02:17:01.308Z,0
2024-05-09T02:18:00.201Z,0
2024-05-09T02:18:59.335Z,0
2024-05-09T02:20:00.265Z,0
2024-05-09T02:20:59.092Z,0
2024-05-09T02:21:59.818Z,0
2024-05-09T02:23:01.290Z,0
2024-05-09T02:24:00.052Z,0
2024-05-09T02:24:59.090Z,0
2024-05-09T02:25:59.844Z,0
2024-05-09T02:27:02.617Z,0
2024-05-09T02:28:01.232Z,0
2024-05-09T02:29:00.010Z,0
2024-05-09T02:29:58.751Z,0
2024-05-09T02:31:01.192Z,0
2024-05-09T02:32:00.102Z,0
2024-05-09T02:32:59.381Z,0
2024-05-09T02:34:00.351Z,0
2024-05-09T02:34:59.205Z,0
2024-05-09T02:36:00.130Z,0
2024-05-09T02:36:58.790Z,0
2024-05-09T02:38:01.519Z,0
2024-05-09T02:39:00.235Z,0
2024-05-09T02:39:58.899Z,0
2024-05-09T02:41:01.220Z,0
2024-05-09T02:41:59.942Z,0
2024-05-09T02:42:58.630Z,0
2024-05-09T02:44:01.328Z,0
2024-05-09T02:45:00.145Z,0
2024-05-09T02:45:58.944Z,0
2024-05-09T02:46:59.685Z,0
2024-05-09T02:48:01.962Z,0
2024-05-09T02:49:01.737Z,0
2024-05-09T02:50:01.265Z,0
2024-05-09T02:51:00.191Z,0
2024-05-09T02:51:59.000Z,0
2024-05-09T02:52:59.708Z,0
2024-05-09T02:54:01.210Z,0
2024-05-09T02:54:59.915Z,0
2024-05-09T02:56:01.277Z,0
2024-05-09T02:57:01.149Z,0
2024-05-09T02:57:59.853Z,0
2024-05-09T02:59:01.288Z,0
2024-05-09T02:59:59.975Z,0
2024-05-09T03:00:58.758Z,0
2024-05-09T03:02:01.423Z,0
2024-05-09T03:03:01.419Z,0
2024-05-09T03:04:00.330Z,0
2024-05-09T03:04:59.094Z,0
2024-05-09T03:05:59.806Z,0
2024-05-09T03:07:01.230Z,0
2024-05-09T03:08:03.429Z,0
2024-05-09T03:08:59.915Z,0
2024-05-09T03:10:01.208Z,0
2024-05-09T03:10:59.961Z,0
2024-05-09T03:11:58.834Z,0
2024-05-09T03:13:05.716Z,0
2024-05-09T03:14:01.644Z,0
2024-05-09T03:15:01.230Z,0
2024-05-09T03:15:59.994Z,0
2024-05-09T03:16:58.772Z,0
2024-05-09T03:18:09.540Z,0
2024-05-09T03:19:01.240Z,0
2024-05-09T03:20:00.140Z,0
2024-05-09T03:20:58.953Z,0
2024-05-09T03:21:59.688Z,0
2024-05-09T03:23:11.586Z,0
2024-05-09T03:24:01.183Z,0
2024-05-09T03:24:59.919Z,0
2024-05-09T03:26:01.391Z,0
2024-05-09T03:27:00.145Z,0
2024-05-09T03:28:12.938Z,0
2024-05-09T03:28:59.857Z,0
2024-05-09T03:30:01.215Z,0
2024-05-09T03:30:59.893Z,0
2024-05-09T03:32:01.393Z,0
2024-05-09T03:33:15.976Z,0
2024-05-09T03:33:59.883Z,0
2024-05-09T03:34:58.728Z,0
2024-05-09T03:36:01.236Z,0
2024-05-09T03:36:59.991Z,0
2024-05-09T03:37:58.739Z,0
2024-05-09T03:39:01.189Z,0
2024-05-09T03:40:01.204Z,0
2024-05-09T03:40:59.972Z,0
2024-05-09T03:41:58.695Z,0
2024-05-09T03:43:01.242Z,0
2024-05-09T03:44:00.026Z,0
2024-05-09T03:44:58.714Z,0
2024-05-09T03:46:01.207Z,0
2024-05-09T03:46:59.919Z,0
2024-05-09T03:47:58.958Z,0
2024-05-09T03:49:01.266Z,0
2024-05-09T03:49:59.840Z,0
2024-05-09T03:51:01.285Z,0
2024-05-09T03:51:59.969Z,0
2024-05-09T03:52:58.692Z,0
2024-05-09T03:54:01.160Z,0
2024-05-09T03:54:59.817Z,0
2024-05-09T03:56:01.327Z,0
2024-05-09T03:57:00.025Z,0
2024-05-09T03:57:58.845Z,0
2024-05-09T03:58:59.633Z,0
2024-05-09T04:00:01.167Z,0
2024-05-09T04:01:00.000Z,0
2024-05-09T04:01:58.835Z,0
2024-05-09T04:03:01.558Z,0
2024-05-09T04:04:01.291Z,0
2024-05-09T04:05:00.004Z,0
2024-05-09T04:05:58.685Z,0
2024-05-09T04:07:01.213Z,0
2024-05-09T04:07:59.972Z,0
2024-05-09T04:08:59.691Z,0
2024-05-09T04:10:01.160Z,0
2024-05-09T04:10:59.954Z,0
2024-05-09T04:11:58.846Z,0
2024-05-09T04:12:59.733Z,0
2024-05-09T04:14:01.269Z,0
2024-05-09T04:14:59.950Z,0
2024-05-09T04:15:59.007Z,0
2024-05-09T04:16:59.831Z,0
2024-05-09T04:18:02.143Z,0
2024-05-09T04:19:01.373Z,0
2024-05-09T04:20:00.397Z,0
2024-05-09T04:20:59.262Z,0
2024-05-09T04:21:59.930Z,0
2024-05-09T04:23:01.259Z,0
2024-05-09T04:24:00.059Z,0
2024-05-09T04:24:58.796Z,0
2024-05-09T04:26:01.276Z,0
2024-05-09T04:27:00.127Z,0
2024-05-09T04:27:58.808Z,0
2024-05-09T04:29:01.762Z,0
2024-05-09T04:30:01.293Z,0
2024-05-09T04:31:00.067Z,0
2024-05-09T04:31:58.852Z,0
2024-05-09T04:32:59.807Z,0
2024-05-09T04:33:58.777Z,0
2024-05-09T04:35:01.258Z,0
2024-05-09T04:36:00.098Z,0.03888888888888889
2024-05-09T04:36:58.767Z,0.03888888888888889
2024-05-09T04:38:01.380Z,0.19999999999999998
2024-05-09T04:39:00.093Z,0.14166666666666666
2024-05-09T04:39:58.767Z,0.21944444444444444
2024-05-09T04:41:01.229Z,0.08055555555555555
2024-05-09T04:41:59.918Z,0.11944444444444444
2024-05-09T04:43:01.244Z,0
2024-05-09T04:44:00.012Z,0.17222222222222222
2024-05-09T04:44:58.943Z,0.03888888888888889
2024-05-09T04:45:59.639Z,0
2024-05-09T04:47:01.263Z,0.23888888888888887
2024-05-09T04:48:00.467Z,0
2024-05-09T04:48:59.627Z,0.14722222222222223
2024-05-09T04:50:01.255Z,0.019444444444444445
2024-05-09T04:51:01.223Z,0
2024-05-09T04:52:01.218Z,0
2024-05-09T04:53:00.036Z,0
2024-05-09T04:54:01.638Z,0.011111111111111112
2024-05-09T04:54:59.710Z,0.11944444444444444
2024-05-09T04:56:01.319Z,0
2024-05-09T04:57:00.102Z,0
2024-05-09T04:57:58.827Z,0.23888888888888887
2024-05-09T04:59:03.616Z,0.17222222222222222
2024-05-09T05:00:01.185Z,0.11944444444444444
2024-05-09T05:00:59.963Z,0
2024-05-09T05:01:58.831Z,0
2024-05-09T05:03:01.464Z,0
2024-05-09T05:04:03.103Z,0
2024-05-09T05:05:01.339Z,0.11944444444444444
2024-05-09T05:06:00.112Z,0
2024-05-09T05:07:02.147Z,0.11944444444444444
2024-05-09T05:08:01.222Z,0
2024-05-09T05:09:05.664Z,0
2024-05-09T05:09:59.803Z,0.08055555555555555
2024-05-09T05:11:01.253Z,0.15833333333333333
2024-05-09T05:11:59.863Z,0
2024-05-09T05:12:58.702Z,0
2024-05-09T05:14:09.934Z,0.3194444444444444
2024-05-09T05:15:01.179Z,0.2777777777777778
2024-05-09T05:15:59.780Z,0.15833333333333333
2024-05-09T05:17:01.262Z,0
2024-05-09T05:18:00.180Z,0
2024-05-09T05:19:13.509Z,0.15833333333333333
2024-05-09T05:20:00.081Z,0.06388888888888888
2024-05-09T05:20:59.057Z,0.03888888888888889
2024-05-09T05:21:59.961Z,0
2024-05-09T05:22:58.677Z,0.15833333333333333
2024-05-09T05:24:15.632Z,0.15833333333333333
2024-05-09T05:25:01.154Z,0
2024-05-09T05:25:59.957Z,0
2024-05-09T05:26:58.694Z,0.19999999999999998
2024-05-09T05:28:01.269Z,0
2024-05-09T05:28:59.980Z,0
2024-05-09T05:29:58.719Z,0.19999999999999998
2024-05-09T05:31:01.366Z,0.18333333333333335
2024-05-09T05:32:00.278Z,0.2777777777777778
2024-05-09T05:32:59.049Z,0.08055555555555555
2024-05-09T05:33:59.894Z,0.19999999999999998
2024-05-09T05:34:58.706Z,0.4361111111111111
2024-05-09T05:36:01.189Z,0.03888888888888889
2024-05-09T05:37:00.154Z,0.15833333333333333
2024-05-09T05:37:58.957Z,0.23888888888888887
2024-05-09T05:38:59.630Z,0.2777777777777778
2024-05-09T05:40:01.238Z,0
2024-05-09T05:40:59.994Z,0.11944444444444444
2024-05-09T05:41:58.708Z,0.23888888888888887
2024-05-09T05:43:01.258Z,0.2777777777777778
2024-05-09T05:43:59.981Z,0.35833333333333334
2024-05-09T05:44:59.010Z,0.19999999999999998
2024-05-09T05:45:59.750Z,0.19999999999999998
2024-05-09T05:47:01.414Z,0.19999999999999998
2024-05-09T05:48:00.508Z,0.15833333333333333
2024-05-09T05:48:59.513Z,0
2024-05-09T05:50:01.380Z,0
2024-05-09T05:51:04.180Z,0.23888888888888887
2024-05-09T05:52:01.214Z,0.15833333333333333
2024-05-09T05:52:59.987Z,0.09999999999999999
2024-05-09T05:53:58.697Z,0.15833333333333333
2024-05-09T05:55:01.178Z,0.08055555555555555
2024-05-09T05:56:00.004Z,0.03888888888888889
2024-05-09T05:56:58.809Z,0.15833333333333333
2024-05-09T05:58:01.188Z,0.15833333333333333
2024-05-09T05:58:59.885Z,0.35833333333333334
2024-05-09T06:00:04.140Z,0.2777777777777778
2024-05-09T06:01:01.318Z,0.08055555555555555
2024-05-09T06:02:00.098Z,0.11944444444444444
2024-05-09T06:02:59.379Z,0.11944444444444444
2024-05-09T06:04:00.255Z,0.03888888888888889
2024-05-09T06:04:59.115Z,0
2024-05-09T06:06:00.042Z,0.11944444444444444
2024-05-09T06:06:58.855Z,0.5166666666666667
2024-05-09T06:08:01.269Z,0.19999999999999998
2024-05-09T06:08:59.986Z,0.31666666666666665
2024-05-09T06:09:58.664Z,0.17777777777777778
2024-05-09T06:11:01.363Z,0.15833333333333333
2024-05-09T06:12:00.283Z,0.35833333333333334
2024-05-09T06:12:59.102Z,0.1388888888888889
2024-05-09T06:13:59.878Z,0.15833333333333333
2024-05-09T06:15:01.163Z,0.19999999999999998
2024-05-09T06:15:59.827Z,0.15833333333333333
2024-05-09T06:17:01.225Z,0.3972222222222222
2024-05-09T06:18:00.262Z,0
2024-05-09T06:18:59.341Z,0.23888888888888887
2024-05-09T06:20:01.191Z,0.1388888888888889
2024-05-09T06:21:00.011Z,0
2024-05-09T06:21:58.763Z,0.08055555555555555
2024-05-09T06:23:03.246Z,0
2024-05-09T06:24:02.574Z,0.03888888888888889
2024-05-09T06:25:01.182Z,0.03888888888888889
2024-05-09T06:25:59.980Z,0.11944444444444444
2024-05-09T06:26:58.629Z,0.08055555555555555
2024-05-09T06:28:01.279Z,0.11944444444444444
2024-05-09T06:29:00.106Z,0.15833333333333333
2024-05-09T06:29:58.810Z,0.11111111111111112
2024-05-09T06:31:01.172Z,0.31666666666666665
2024-05-09T06:32:00.351Z,0.19999999999999998
2024-05-09T06:32:59.364Z,0
2024-05-09T06:34:00.310Z,0.15833333333333333
2024-05-09T06:34:59.393Z,0.2833333333333333
2024-05-09T06:36:00.164Z,0.35833333333333334
2024-05-09T06:36:58.956Z,0.11944444444444444
2024-05-09T06:37:59.701Z,0.15833333333333333
2024-05-09T06:39:01.237Z,0.31666666666666665
2024-05-09T06:40:01.168Z,0.24722222222222223
2024-05-09T06:40:59.966Z,0.08055555555555555
2024-05-09T06:41:58.681Z,0.15833333333333333
2024-05-09T06:43:01.248Z,0.15833333333333333
2024-05-09T06:43:59.979Z,0
2024-05-09T06:45:00.220Z,0.12222222222222222
2024-05-09T06:45:59.007Z,0.08055555555555555
2024-05-09T06:47:00.240Z,0.15833333333333333
2024-05-09T06:47:59.491Z,0
2024-05-09T06:49:01.490Z,0.08055555555555555
2024-05-09T06:50:03.536Z,0.18333333333333335
2024-05-09T06:51:01.298Z,0.23888888888888887
2024-05-09T06:51:59.973Z,0.08055555555555555
2024-05-09T06:52:58.776Z,0.2777777777777778
2024-05-09T06:54:01.218Z,0.23888888888888887
2024-05-09T06:55:02.826Z,0.15833333333333333
2024-05-09T06:55:59.971Z,0.15833333333333333
2024-05-09T06:56:58.737Z,0.15833333333333333
2024-05-09T06:58:01.196Z,0.08055555555555555
2024-05-09T06:59:00.064Z,0
2024-05-09T07:00:05.066Z,0
2024-05-09T07:01:00.058Z,0.23888888888888887
2024-05-09T07:01:58.798Z,0.23888888888888887
2024-05-09T07:03:04.755Z,0.11944444444444444
2024-05-09T07:04:01.483Z,0
2024-05-09T07:05:06.408Z,0
2024-05-09T07:06:00.105Z,0.15833333333333333
2024-05-09T07:06:58.744Z,0.15833333333333333
2024-05-09T07:08:01.238Z,0.19999999999999998
2024-05-09T07:08:59.921Z,0.03888888888888889
2024-05-09T07:10:14.962Z,0.049999999999999996
2024-05-09T07:11:01.372Z,0.47777777777777775
2024-05-09T07:12:01.340Z,0.15833333333333333
2024-05-09T07:13:00.127Z,0.08055555555555555
2024-05-09T07:13:58.861Z,0.11944444444444444
2024-05-09T07:15:13.205Z,0.2333333333333333
2024-05-09T07:16:01.227Z,0
2024-05-09T07:17:00.066Z,0.35833333333333334
2024-05-09T07:17:59.087Z,0.08055555555555555
2024-05-09T07:19:00.018Z,0.31666666666666665
2024-05-09T07:20:22.898Z,0.2777777777777778
2024-05-09T07:20:59.778Z,0.35833333333333334
2024-05-09T07:22:01.202Z,0.23888888888888887
2024-05-09T07:22:59.916Z,0.3972222222222222
2024-05-09T07:24:02.658Z,0.31666666666666665
2024-05-09T07:25:15.930Z,0.14722222222222223
2024-05-09T07:26:01.288Z,0.7555555555555555
2024-05-09T07:26:59.991Z,0.11944444444444444
2024-05-09T07:27:58.679Z,0.23888888888888887
2024-05-09T07:29:01.270Z,0.4361111111111111
2024-05-09T07:29:59.915Z,0.31666666666666665
2024-05-09T07:31:01.268Z,0.35833333333333334
2024-05-09T07:31:59.989Z,0.5166666666666667
2024-05-09T07:32:59.030Z,0.6361111111111111
2024-05-09T07:33:59.905Z,0.6361111111111111
2024-05-09T07:34:58.753Z,0.15833333333333333
2024-05-09T07:36:01.182Z,0.4361111111111111
2024-05-09T07:36:59.864Z,0
2024-05-09T07:38:01.351Z,0
2024-05-09T07:39:00.051Z,0.11944444444444444
2024-05-09T07:39:58.700Z,0
2024-05-09T07:41:01.267Z,0.23888888888888887
2024-05-09T07:42:01.187Z,0.9944444444444445
2024-05-09T07:43:00.005Z,0.8333333333333333
2024-05-09T07:43:58.809Z,0.23888888888888887
2024-05-09T07:45:21.069Z,0.9138888888888889
2024-05-09T07:46:37.851Z,0.19999999999999998
2024-05-09T07:50:35.818Z,0
2024-05-09T07:51:48.172Z,0.19999999999999998
2024-05-09T07:53:07.617Z,0.5555555555555556
2024-05-09T07:53:22.111Z,1.2305555555555554
2024-05-09T07:53:35.766Z,0.8333333333333333
2024-05-09T07:54:01.308Z,0.6361111111111111
2024-05-09T07:55:01.585Z,0.9138888888888889
2024-05-09T07:56:01.544Z,0.8333333333333333
2024-05-09T07:57:01.277Z,0.35833333333333334
2024-05-09T07:58:00.052Z,0.31666666666666665
2024-05-09T07:58:58.818Z,0.23888888888888887
2024-05-09T08:00:01.213Z,0.5166666666666667
2024-05-09T08:01:00.017Z,0.4361111111111111
2024-05-09T08:01:58.932Z,0.3972222222222222
2024-05-09T08:02:59.756Z,0.22222222222222224
2024-05-09T08:04:01.288Z,0.4361111111111111
2024-05-09T08:05:00.155Z,0.35833333333333334
2024-05-09T08:05:59.041Z,0.6361111111111111
2024-05-09T08:06:59.865Z,0.2777777777777778
2024-05-09T08:08:01.247Z,0.675
2024-05-09T08:09:05.142Z,0.5972222222222222
2024-05-09T08:09:59.808Z,0.11944444444444444
2024-05-09T08:11:01.188Z,0.08055555555555555
2024-05-09T08:11:59.825Z,0.19999999999999998
2024-05-09T08:13:01.322Z,0.5472222222222222
2024-05-09T08:14:00.008Z,0.4361111111111111
2024-05-09T08:14:58.681Z,0.08055555555555555
2024-05-09T08:16:01.344Z,0.31666666666666665
2024-05-09T08:17:00.126Z,0.19999999999999998
2024-05-09T08:17:59.374Z,0.5555555555555556
2024-05-09T08:19:00.401Z,0.15833333333333333
2024-05-09T08:19:59.335Z,0.4361111111111111
2024-05-09T08:21:00.043Z,0.23888888888888887
2024-05-09T08:21:58.729Z,0.03888888888888889
2024-05-09T08:23:01.247Z,0.3972222222222222
2024-05-09T08:23:59.982Z,0.6361111111111111
2024-05-09T08:24:58.796Z,0.15833333333333333
2024-05-09T08:26:01.221Z,0.3194444444444444
2024-05-09T08:26:59.900Z,0.15833333333333333
2024-05-09T08:28:01.350Z,0.6361111111111111
2024-05-09T08:29:01.182Z,0.23888888888888887
2024-05-09T08:29:59.924Z,0.9138888888888889
2024-05-09T08:30:58.827Z,0.2833333333333333
2024-05-09T08:32:00.029Z,0.23888888888888887
2024-05-09T08:32:59.412Z,0.4361111111111111
2024-05-09T08:34:00.364Z,0.15833333333333333
2024-05-09T08:34:59.184Z,0.2777777777777778
2024-05-09T08:35:59.969Z,0.6388888888888888
2024-05-09T08:37:03.741Z,0.3972222222222222
2024-05-09T08:38:01.348Z,0.2777777777777778
2024-05-09T08:39:00.195Z,0.15833333333333333
2024-05-09T08:39:58.964Z,0.47777777777777775
2024-05-09T08:40:59.683Z,0.5055555555555555
2024-05-09T08:42:01.249Z,0.47777777777777775
2024-05-09T08:43:02.452Z,0.11944444444444444
2024-05-09T08:44:00.002Z,0.19722222222222222
2024-05-09T08:44:58.853Z,0.2777777777777778
2024-05-09T08:46:01.280Z,0.7638888888888888
2024-05-09T08:47:00.208Z,0.6361111111111111
2024-05-09T08:47:59.081Z,0.5166666666666667
2024-05-09T08:49:00.069Z,0.5555555555555556
2024-05-09T08:49:59.023Z,0.31666666666666665
2024-05-09T08:51:04.532Z,0.49166666666666664
2024-05-09T08:52:00.191Z,0.5972222222222222
2024-05-09T08:52:58.936Z,0.9138888888888889
2024-05-09T08:53:59.765Z,0.675
2024-05-09T08:55:01.246Z,0.08055555555555555
2024-05-09T08:56:06.388Z,0.6027777777777777
2024-05-09T08:56:59.982Z,0.23888888888888887
2024-05-09T08:57:58.725Z,0.15833333333333333
2024-05-09T08:59:01.186Z,0.7944444444444444
2024-05-09T08:59:59.935Z,0.3972222222222222
2024-05-09T09:01:08.972Z,0.5555555555555556
2024-05-09T09:02:00.076Z,0.5166666666666667
2024-05-09T09:02:58.899Z,0.3972222222222222
2024-05-09T09:03:59.958Z,0.675
2024-05-09T09:04:59.030Z,0.08055555555555555
2024-05-09T09:06:10.865Z,0.35833333333333334
2024-05-09T09:07:00.389Z,0.3972222222222222
2024-05-09T09:08:01.218Z,1.2722222222222221
2024-05-09T09:08:59.983Z,0.875
2024-05-09T09:09:58.811Z,0.47777777777777775
2024-05-09T09:11:14.086Z,0.6027777777777777
2024-05-09T09:11:59.916Z,0.4361111111111111
2024-05-09T09:12:58.764Z,0.19999999999999998
2024-05-09T09:14:01.172Z,0.5555555555555556
2024-05-09T09:15:00.166Z,0.3972222222222222
2024-05-09T09:15:59.517Z,0.4361111111111111
2024-05-09T09:17:01.431Z,0.5027777777777778
2024-05-09T09:18:00.741Z,0.3972222222222222
2024-05-09T09:18:59.884Z,0.7138888888888888
2024-05-09T09:19:58.784Z,1.0333333333333334
2024-05-09T09:21:01.168Z,0.5972222222222222
2024-05-09T09:22:00.051Z,0.03888888888888889
2024-05-09T09:22:58.773Z,0.4361111111111111
2024-05-09T09:24:01.232Z,0.41666666666666663
2024-05-09T09:24:59.898Z,0.3972222222222222
2024-05-09T09:25:58.668Z,0.31666666666666665
2024-05-09T09:27:01.221Z,0
2024-05-09T09:28:00.116Z,0.47777777777777775
2024-05-09T09:28:58.978Z,0.5555555555555556
2024-05-09T09:29:59.703Z,0.5555555555555556
2024-05-09T09:31:01.272Z,0.7555555555555555
2024-05-09T09:32:00.057Z,0.7555555555555555
2024-05-09T09:32:58.845Z,0.3972222222222222
2024-05-09T09:33:59.878Z,1.55
2024-05-09T09:34:58.824Z,0.47777777777777775
2024-05-09T09:36:01.953Z,0.31666666666666665
2024-05-09T09:37:01.224Z,0.2777777777777778
2024-05-09T09:37:59.997Z,0.5555555555555556
2024-05-09T09:38:58.684Z,0.2777777777777778
2024-05-09T09:40:01.236Z,0.19999999999999998
2024-05-09T09:41:00.225Z,0.2777777777777778
2024-05-09T09:41:59.072Z,0.4361111111111111
2024-05-09T09:42:59.755Z,0.7555555555555555
2024-05-09T09:44:01.209Z,0.5972222222222222
2024-05-09T09:45:04.886Z,0.3972222222222222
2024-05-09T09:46:00.260Z,0.675
2024-05-09T09:46:59.066Z,0.47777777777777775
2024-05-09T09:47:59.962Z,0.15833333333333333
2024-05-09T09:48:58.900Z,0.11944444444444444
2024-05-09T09:49:59.995Z,1.35
2024-05-09T09:50:58.737Z,0.6361111111111111
2024-05-09T09:52:01.721Z,0.3805555555555556
2024-05-09T09:53:01.155Z,0.8333333333333333
2024-05-09T09:53:59.858Z,0.7944444444444444
2024-05-09T09:55:01.215Z,0.7944444444444444
2024-05-09T09:56:00.009Z,0.08055555555555555
2024-05-09T09:56:58.762Z,0.31666666666666665
2024-05-09T09:58:01.235Z,0.5166666666666667
2024-05-09T09:59:01.195Z,0.23888888888888887
2024-05-09T10:00:01.228Z,0.2777777777777778
2024-05-09T10:01:00.046Z,1.0722222222222222
2024-05-09T10:01:59.028Z,0.5944444444444444
2024-05-09T10:03:00.019Z,1.9083333333333332
2024-05-09T10:03:59.072Z,0.35833333333333334
2024-05-09T10:05:00.013Z,1.4694444444444443
2024-05-09T10:05:58.887Z,1.2305555555555554
2024-05-09T10:06:59.656Z,0.7555555555555555
2024-05-09T10:08:01.237Z,0.4361111111111111
2024-05-09T10:08:59.976Z,1.3111111111111111
2024-05-09T10:09:58.667Z,1.3111111111111111
2024-05-09T10:11:01.350Z,1.1916666666666667
2024-05-09T10:12:00.657Z,1.172222222222222
2024-05-09T10:12:59.760Z,0.5555555555555556
2024-05-09T10:14:01.254Z,0.23888888888888887
2024-05-09T10:15:00.010Z,0.5555555555555556
2024-05-09T10:15:58.834Z,0.6361111111111111
2024-05-09T10:17:01.251Z,0.5361111111111111
2024-05-09T10:18:00.133Z,0.5166666666666667
2024-05-09T10:18:59.043Z,0.31666666666666665
2024-05-09T10:19:59.885Z,0.8333333333333333
2024-05-09T10:20:58.708Z,0.875
2024-05-09T10:22:01.332Z,0.19722222222222222
2024-05-09T10:23:00.025Z,0.5166666666666667
2024-05-09T10:23:58.720Z,0.07777777777777778
2024-05-09T10:25:02.770Z,0.47777777777777775
2024-05-09T10:26:01.305Z,0.2777777777777778
2024-05-09T10:27:00.072Z,0.4555555555555555
2024-05-09T10:27:58.925Z,0.5555555555555556
2024-05-09T10:28:59.786Z,0.4361111111111111
2024-05-09T10:30:01.258Z,1.5888888888888888
2024-05-09T10:31:00.020Z,0.47777777777777775
2024-05-09T10:31:58.783Z,0.36944444444444446
2024-05-09T10:33:01.349Z,1.1111111111111112
2024-05-09T10:34:00.506Z,1.2027777777777777
2024-05-09T10:34:59.576Z,0.8333333333333333
2024-05-09T10:36:01.154Z,0.875
2024-05-09T10:37:02.822Z,0.3194444444444444
2024-05-09T10:38:01.211Z,0.5555555555555556
2024-05-09T10:38:59.881Z,0.6361111111111111
2024-05-09T10:40:01.237Z,0.31666666666666665
2024-05-09T10:40:59.989Z,0.4361111111111111
2024-05-09T10:42:04.123Z,0.08611111111111111
2024-05-09T10:43:02.554Z,0.11944444444444444
2024-05-09T10:44:01.244Z,0.23888888888888887
2024-05-09T10:44:59.996Z,0.35833333333333334
2024-05-09T10:45:58.690Z,0.5166666666666667
2024-05-09T10:47:06.479Z,0.7999999999999999
2024-05-09T10:48:01.499Z,0.6361111111111111
2024-05-09T10:49:03.323Z,0.47777777777777775
2024-05-09T10:50:01.268Z,0.19999999999999998
2024-05-09T10:51:00.031Z,0.47777777777777775
2024-05-09T10:52:09.192Z,0.5166666666666667
2024-05-09T10:53:00.028Z,0.5166666666666667
2024-05-09T10:53:58.731Z,0.23888888888888887
2024-05-09T10:55:03.076Z,0.19999999999999998
2024-05-09T10:56:01.294Z,0.2777777777777778
2024-05-09T10:57:10.846Z,0.11944444444444444
2024-05-09T10:57:59.835Z,0.31666666666666665
2024-05-09T10:59:01.180Z,0.19999999999999998
2024-05-09T10:59:59.821Z,1.0333333333333334
2024-05-09T11:01:04.333Z,1.0333333333333334
2024-05-09T11:02:13.184Z,2.263888888888889
2024-05-09T11:03:01.253Z,1.4694444444444443
2024-05-09T11:04:00.182Z,1.2305555555555554
2024-05-09T11:04:59.271Z,0.19999999999999998
2024-05-09T11:06:00.072Z,0.08055555555555555
2024-05-09T11:07:14.316Z,0.2777777777777778
2024-05-09T11:07:59.744Z,1.0722222222222222